createdAt,value
2022-10-06T00:00:46.646Z,89.70
2022-10-06T00:01:46.652Z,89.60
2022-10-06T00:02:46.698Z,89.60
2022-10-06T00:03:46.617Z,89.81
2022-10-06T00:04:46.621Z,89.75
2022-10-06T00:05:46.594Z,90.46
2022-10-06T00:06:46.681Z,90.46
2022-10-06T00:07:46.575Z,90.56
2022-10-06T00:08:46.561Z,90.36
2022-10-06T00:09:46.521Z,89.95
2022-10-06T00:10:46.512Z,89.64
2022-10-06T00:11:46.508Z,89.54
2022-10-06T00:12:46.517Z,89.64
2022-10-06T00:13:46.522Z,89.64
2022-10-06T00:14:46.486Z,90.87
2022-10-06T00:15:46.493Z,90.46
2022-10-06T00:16:46.430Z,90.46
2022-10-06T00:17:46.430Z,91.28
2022-10-06T00:18:46.419Z,91.59
2022-10-06T00:19:46.414Z,91.90
2022-10-06T00:20:46.377Z,91.28
2022-10-06T00:21:46.355Z,91.28
2022-10-06T00:22:46.361Z,90.87
2022-10-06T00:23:46.345Z,90.77
2022-10-06T00:24:46.344Z,90.26
2022-10-06T00:25:46.315Z,90.56
2022-10-06T00:26:46.298Z,90.26
2022-10-06T00:27:46.312Z,90.05
2022-10-06T00:28:46.343Z,90.16
2022-10-06T00:29:46.250Z,89.84
2022-10-06T00:30:46.308Z,89.33
2022-10-06T00:31:46.248Z,89.75
2022-10-06T00:32:46.271Z,89.64
2022-10-06T00:33:46.222Z,89.75
2022-10-06T00:34:46.200Z,89.64
2022-10-06T00:35:46.176Z,89.43
2022-10-06T00:36:46.246Z,89.75
2022-10-06T00:37:46.167Z,90.46
2022-10-06T00:38:46.139Z,90.30
2022-10-06T00:39:46.116Z,90.40
2022-10-06T00:40:46.123Z,90.61
2022-10-06T00:41:46.115Z,90.40
2022-10-06T00:42:46.083Z,90.50
2022-10-06T00:43:46.092Z,90.71
2022-10-06T00:44:46.058Z,90.91
2022-10-06T00:45:46.072Z,90.81
2022-10-06T00:46:46.173Z,90.81
2022-10-06T00:47:46.025Z,91.02
2022-10-06T00:48:46.002Z,91.12
2022-10-06T00:49:46.026Z,90.81
2022-10-06T00:50:45.968Z,90.91
2022-10-06T00:51:45.968Z,91.53
2022-10-06T00:52:45.947Z,91.47
2022-10-06T00:53:45.935Z,91.06
2022-10-06T00:54:45.952Z,91.37
2022-10-06T00:55:46.024Z,91.16
2022-10-06T00:56:45.928Z,90.85
2022-10-06T00:57:45.882Z,90.55
2022-10-06T00:58:45.870Z,90.40
2022-10-06T00:59:45.890Z,90.20
2022-10-06T01:00:45.868Z,91.16
2022-10-06T01:01:45.896Z,91.06
2022-10-06T01:02:45.894Z,90.85
2022-10-06T01:03:45.808Z,90.95
2022-10-06T01:04:45.791Z,90.85
2022-10-06T01:05:45.769Z,90.55
2022-10-06T01:06:45.797Z,90.34
2022-10-06T01:07:45.776Z,90.24
2022-10-06T01:08:45.761Z,90.24
2022-10-06T01:09:45.727Z,90.03
2022-10-06T01:10:45.716Z,89.72
2022-10-06T01:11:45.716Z,90.95
2022-10-06T01:12:45.694Z,90.55
2022-10-06T01:13:45.668Z,91.06
2022-10-06T01:14:45.686Z,90.85
2022-10-06T01:15:46.235Z,90.55
2022-10-06T01:16:45.636Z,90.75
2022-10-06T01:17:45.656Z,90.34
2022-10-06T01:18:45.631Z,89.93
2022-10-06T01:19:45.584Z,89.93
2022-10-06T01:20:45.571Z,89.52
2022-10-06T01:21:45.587Z,89.62
2022-10-06T01:22:45.550Z,89.72
2022-10-06T01:23:45.534Z,89.93
2022-10-06T01:24:45.554Z,89.83
2022-10-06T01:25:45.510Z,89.42
2022-10-06T01:26:45.501Z,89.62
2022-10-06T01:27:45.476Z,90.34
2022-10-06T01:28:45.584Z,90.38
2022-10-06T01:29:45.456Z,91.00
2022-10-06T01:30:45.493Z,91.51
2022-10-06T01:31:45.426Z,91.82
2022-10-06T01:32:45.414Z,91.31
2022-10-06T01:33:45.429Z,92.13
2022-10-06T01:34:45.394Z,91.61
2022-10-06T01:35:45.374Z,91.51
2022-10-06T01:36:45.389Z,91.61
2022-10-06T01:37:45.342Z,92.13
2022-10-06T01:38:45.341Z,92.95
2022-10-06T01:39:45.343Z,92.64
2022-10-06T01:40:45.310Z,92.23
2022-10-06T01:41:45.295Z,91.61
2022-10-06T01:42:45.315Z,91.31
2022-10-06T01:43:45.283Z,91.20
2022-10-06T01:44:45.268Z,91.41
2022-10-06T01:45:45.264Z,91.82
2022-10-06T01:46:45.291Z,91.82
2022-10-06T01:47:45.243Z,91.20
2022-10-06T01:48:45.270Z,91.10
2022-10-06T01:49:45.184Z,91.00
2022-10-06T01:50:45.195Z,91.10
2022-10-06T01:51:45.188Z,91.00
2022-10-06T01:52:45.141Z,91.72
2022-10-06T01:53:45.174Z,91.76
2022-10-06T01:54:45.119Z,91.55
2022-10-06T01:55:45.116Z,91.55
2022-10-06T01:56:45.099Z,91.66
2022-10-06T01:57:45.071Z,91.76
2022-10-06T01:58:45.086Z,91.66
2022-10-06T01:59:45.074Z,91.14
2022-10-06T02:00:45.055Z,90.73
2022-10-06T02:01:45.066Z,91.25
2022-10-06T02:02:45.013Z,91.35
2022-10-06T02:03:45.001Z,91.04
2022-10-06T02:04:45.008Z,91.04
2022-10-06T02:05:44.976Z,91.04
2022-10-06T02:06:45.103Z,92.58
2022-10-06T02:07:44.964Z,92.79
2022-10-06T02:08:44.938Z,92.69
2022-10-06T02:09:44.919Z,92.27
2022-10-06T02:10:44.905Z,92.07
2022-10-06T02:11:44.900Z,91.76
2022-10-06T02:12:44.920Z,92.79
2022-10-06T02:13:44.874Z,92.79
2022-10-06T02:14:44.857Z,92.38
2022-10-06T02:15:44.876Z,92.48
2022-10-06T02:16:44.827Z,92.17
2022-10-06T02:17:44.843Z,91.76
2022-10-06T02:18:44.817Z,91.66
2022-10-06T02:19:44.784Z,91.45
2022-10-06T02:20:44.804Z,91.45
2022-10-06T02:21:44.755Z,91.55
2022-10-06T02:22:44.748Z,91.97
2022-10-06T02:23:44.734Z,92.58
2022-10-06T02:24:44.717Z,92.48
2022-10-06T02:25:44.735Z,91.86
2022-10-06T02:26:44.702Z,91.66
2022-10-06T02:27:44.677Z,91.66
2022-10-06T02:28:44.800Z,92.11
2022-10-06T02:29:44.654Z,92.11
2022-10-06T02:30:44.662Z,91.91
2022-10-06T02:31:44.632Z,91.80
2022-10-06T02:32:44.614Z,92.01
2022-10-06T02:33:44.785Z,91.91
2022-10-06T02:34:44.605Z,91.91
2022-10-06T02:35:44.580Z,91.49
2022-10-06T02:36:44.612Z,91.49
2022-10-06T02:37:44.551Z,92.42
2022-10-06T02:38:44.538Z,91.91
2022-10-06T02:39:44.517Z,91.80
2022-10-06T02:40:44.526Z,91.70
2022-10-06T02:41:44.496Z,91.91
2022-10-06T02:42:44.478Z,92.63
2022-10-06T02:43:44.518Z,92.93
2022-10-06T02:44:44.482Z,92.42
2022-10-06T02:45:44.457Z,92.21
2022-10-06T02:46:44.475Z,92.21
2022-10-06T02:47:44.408Z,92.01
2022-10-06T02:48:44.438Z,92.11
2022-10-06T02:49:44.420Z,91.91
2022-10-06T02:50:44.365Z,91.70
2022-10-06T02:51:44.367Z,91.49
2022-10-06T02:52:44.377Z,91.29
2022-10-06T02:53:44.335Z,91.29
2022-10-06T02:54:44.350Z,91.80
2022-10-06T02:55:44.305Z,92.32
2022-10-06T02:56:44.300Z,92.32
2022-10-06T02:57:44.308Z,92.63
2022-10-06T02:58:44.266Z,92.42
2022-10-06T02:59:44.257Z,91.80
2022-10-06T03:00:44.241Z,92.11
2022-10-06T03:01:44.379Z,92.57
2022-10-06T03:02:44.429Z,92.67
2022-10-06T03:03:44.192Z,92.97
2022-10-06T03:04:44.208Z,92.46
2022-10-06T03:05:44.164Z,92.36
2022-10-06T03:06:44.164Z,92.25
2022-10-06T03:07:44.141Z,91.95
2022-10-06T03:08:44.127Z,91.85
2022-10-06T03:09:44.176Z,92.16
2022-10-06T03:10:44.102Z,92.87
2022-10-06T03:11:44.095Z,93.08
2022-10-06T03:12:44.077Z,94.11
2022-10-06T03:13:44.077Z,94.52
2022-10-06T03:14:44.085Z,94.21
2022-10-06T03:15:44.040Z,93.80
2022-10-06T03:16:44.020Z,93.49
2022-10-06T03:17:44.045Z,92.97
2022-10-06T03:18:43.993Z,92.67
2022-10-06T03:19:44.013Z,92.36
2022-10-06T03:20:43.961Z,92.05
2022-10-06T03:21:43.959Z,92.36
2022-10-06T03:22:43.964Z,92.67
2022-10-06T03:23:43.939Z,92.67
2022-10-06T03:24:43.952Z,93.70
2022-10-06T03:25:43.904Z,93.90
2022-10-06T03:26:43.891Z,93.70
2022-10-06T03:27:43.879Z,93.90
2022-10-06T03:28:43.918Z,93.39
2022-10-06T03:29:43.857Z,92.87
2022-10-06T03:30:43.837Z,93.08
2022-10-06T03:31:43.932Z,93.29
2022-10-06T03:32:43.833Z,93.08
2022-10-06T03:33:43.795Z,92.97
2022-10-06T03:34:43.804Z,92.77
2022-10-06T03:35:43.771Z,92.77
2022-10-06T03:36:43.755Z,93.80
2022-10-06T03:37:43.735Z,94.01
2022-10-06T03:38:43.731Z,93.70
2022-10-06T03:39:43.751Z,93.49
2022-10-06T03:40:43.695Z,93.08
2022-10-06T03:41:43.715Z,92.97
2022-10-06T03:42:43.672Z,93.70
2022-10-06T03:43:43.663Z,93.80
2022-10-06T03:44:43.646Z,93.90
2022-10-06T03:45:43.646Z,94.01
2022-10-06T03:46:43.717Z,94.01
2022-10-06T03:47:43.608Z,93.80
2022-10-06T03:48:43.588Z,93.80
2022-10-06T03:49:43.581Z,93.49
2022-10-06T03:50:43.557Z,93.29
2022-10-06T03:51:43.585Z,93.49
2022-10-06T03:52:43.539Z,93.70
2022-10-06T03:53:43.528Z,93.29
2022-10-06T03:54:43.505Z,93.08
2022-10-06T03:55:43.502Z,93.02
2022-10-06T03:56:43.515Z,92.87
2022-10-06T03:57:43.500Z,92.77
2022-10-06T03:58:43.454Z,93.08
2022-10-06T03:59:43.443Z,93.59
2022-10-06T04:00:43.529Z,93.74
2022-10-06T04:01:43.541Z,93.33
2022-10-06T04:02:43.459Z,93.23
2022-10-06T04:03:43.395Z,93.33
2022-10-06T04:04:43.373Z,93.33
2022-10-06T04:05:43.368Z,93.43
2022-10-06T04:06:43.350Z,93.84
2022-10-06T04:07:43.358Z,93.95
2022-10-06T04:08:43.320Z,93.95
2022-10-06T04:09:43.335Z,93.95
2022-10-06T04:10:43.295Z,93.74
2022-10-06T04:11:43.284Z,93.43
2022-10-06T04:12:43.263Z,93.84
2022-10-06T04:13:43.287Z,94.26
2022-10-06T04:14:43.249Z,94.46
2022-10-06T04:15:43.269Z,94.60
2022-10-06T04:16:43.267Z,94.20
2022-10-06T04:17:43.231Z,94.51
2022-10-06T04:18:43.182Z,95.12
2022-10-06T04:19:43.186Z,95.12
2022-10-06T04:20:43.157Z,95.23
2022-10-06T04:21:43.151Z,94.81
2022-10-06T04:22:43.154Z,94.20
2022-10-06T04:23:43.132Z,93.79
2022-10-06T04:24:43.131Z,94.81
2022-10-06T04:25:43.097Z,96.25
2022-10-06T04:26:43.081Z,97.34
2022-10-06T04:27:43.068Z,97.65
2022-10-06T04:28:43.122Z,97.44
2022-10-06T04:29:43.075Z,96.72
2022-10-06T04:30:43.021Z,95.90
2022-10-06T04:31:43.082Z,95.18
2022-10-06T04:32:43.002Z,94.98
2022-10-06T04:33:42.988Z,94.87
2022-10-06T04:34:42.995Z,94.77
2022-10-06T04:35:43.063Z,94.77
2022-10-06T04:36:42.953Z,94.56
2022-10-06T04:37:42.932Z,94.36
2022-10-06T04:38:42.928Z,94.15
2022-10-06T04:39:42.935Z,94.05
2022-10-06T04:40:42.899Z,94.36
2022-10-06T04:41:42.892Z,94.46
2022-10-06T04:42:42.891Z,95.28
2022-10-06T04:43:42.857Z,95.08
2022-10-06T04:44:42.838Z,95.08
2022-10-06T04:45:42.973Z,95.08
2022-10-06T04:46:44.492Z,94.87
2022-10-06T04:47:42.797Z,94.36
2022-10-06T04:48:42.782Z,94.15
2022-10-06T04:49:42.806Z,94.36
2022-10-06T04:50:42.770Z,94.87
2022-10-06T04:51:42.754Z,95.02
2022-10-06T04:52:42.750Z,95.23
2022-10-06T04:53:42.715Z,95.33
2022-10-06T04:54:42.730Z,94.92
2022-10-06T04:55:42.687Z,94.81
2022-10-06T04:56:42.746Z,94.51
2022-10-06T04:57:42.688Z,94.20
2022-10-06T04:58:42.652Z,93.95
2022-10-06T04:59:42.640Z,93.64
2022-10-06T05:00:42.703Z,93.95
2022-10-06T05:01:42.607Z,94.15
2022-10-06T05:02:42.696Z,94.05
2022-10-06T05:03:42.586Z,94.15
2022-10-06T05:04:42.565Z,94.05
2022-10-06T05:05:42.554Z,93.84
2022-10-06T05:06:42.539Z,93.84
2022-10-06T05:07:42.566Z,94.36
2022-10-06T05:08:42.506Z,94.30
2022-10-06T05:09:42.517Z,93.99
2022-10-06T05:10:42.520Z,93.99
2022-10-06T05:11:42.473Z,93.99
2022-10-06T05:12:42.488Z,94.60
2022-10-06T05:13:42.448Z,94.60
2022-10-06T05:14:42.460Z,94.40
2022-10-06T05:15:42.424Z,94.20
2022-10-06T05:16:42.498Z,94.30
2022-10-06T05:17:42.394Z,93.99
2022-10-06T05:18:42.375Z,93.88
2022-10-06T05:19:42.393Z,93.99
2022-10-06T05:20:42.363Z,93.99
2022-10-06T05:21:42.398Z,94.09
2022-10-06T05:22:42.327Z,94.81
2022-10-06T05:23:42.308Z,95.12
2022-10-06T05:24:42.324Z,94.92
2022-10-06T05:25:42.312Z,94.51
2022-10-06T05:26:42.280Z,94.09
2022-10-06T05:27:42.269Z,93.88
2022-10-06T05:28:42.386Z,93.88
2022-10-06T05:29:42.235Z,93.99
2022-10-06T05:30:42.214Z,94.20
2022-10-06T05:31:42.237Z,94.20
2022-10-06T05:32:42.213Z,93.79
2022-10-06T05:33:42.177Z,93.58
2022-10-06T05:34:42.164Z,93.48
2022-10-06T05:35:42.167Z,93.37
2022-10-06T05:36:42.143Z,93.27
2022-10-06T05:37:42.155Z,94.51
2022-10-06T05:38:42.104Z,94.81
2022-10-06T05:39:42.098Z,94.92
2022-10-06T05:40:42.109Z,94.71
2022-10-06T05:41:42.109Z,94.09
2022-10-06T05:42:42.088Z,93.68
2022-10-06T05:43:42.065Z,93.37
2022-10-06T05:44:42.030Z,93.48
2022-10-06T05:45:42.084Z,93.88
2022-10-06T05:46:42.032Z,94.40
2022-10-06T05:47:42.005Z,94.40
2022-10-06T05:48:41.972Z,94.09
2022-10-06T05:49:41.986Z,94.20
2022-10-06T05:50:41.950Z,94.40
2022-10-06T05:51:41.940Z,94.92
2022-10-06T05:52:41.927Z,94.51
2022-10-06T05:53:41.942Z,94.60
2022-10-06T05:54:41.916Z,95.43
2022-10-06T05:55:41.887Z,95.33
2022-10-06T05:56:41.870Z,95.23
2022-10-06T05:57:41.879Z,95.43
2022-10-06T05:58:41.865Z,96.25
2022-10-06T05:59:41.828Z,96.46
2022-10-06T06:00:41.816Z,96.67
2022-10-06T06:01:41.922Z,96.25
2022-10-06T06:02:41.866Z,95.84
2022-10-06T06:03:41.771Z,95.53
2022-10-06T06:04:41.763Z,95.95
2022-10-06T06:05:41.748Z,96.36
2022-10-06T06:06:41.733Z,96.56
2022-10-06T06:07:41.763Z,96.83
2022-10-06T06:08:41.707Z,96.93
2022-10-06T06:09:41.706Z,96.93
2022-10-06T06:10:41.681Z,96.52
2022-10-06T06:11:41.705Z,96.11
2022-10-06T06:12:41.749Z,95.49
2022-10-06T06:13:41.649Z,95.08
2022-10-06T06:14:41.650Z,94.67
2022-10-06T06:15:41.616Z,94.67
2022-10-06T06:16:41.690Z,94.67
2022-10-06T06:17:41.589Z,95.08
2022-10-06T06:18:41.704Z,95.39
2022-10-06T06:19:41.573Z,95.80
2022-10-06T06:20:41.541Z,96.31
2022-10-06T06:21:41.560Z,96.52
2022-10-06T06:22:41.515Z,96.52
2022-10-06T06:23:41.592Z,96.31
2022-10-06T06:24:41.508Z,96.11
2022-10-06T06:25:41.478Z,96.11
2022-10-06T06:26:41.486Z,96.31
2022-10-06T06:27:41.477Z,96.27
2022-10-06T06:28:41.573Z,96.17
2022-10-06T06:29:41.429Z,95.96
2022-10-06T06:30:41.436Z,95.96
2022-10-06T06:31:41.489Z,96.68
2022-10-06T06:32:41.406Z,96.89
2022-10-06T06:33:41.372Z,96.64
2022-10-06T06:34:41.370Z,96.53
2022-10-06T06:35:41.345Z,96.43
2022-10-06T06:36:41.345Z,96.12
2022-10-06T06:37:41.351Z,95.92
2022-10-06T06:38:41.314Z,95.81
2022-10-06T06:39:41.310Z,95.81
2022-10-06T06:40:41.274Z,95.97
2022-10-06T06:41:41.265Z,95.87
2022-10-06T06:42:41.289Z,95.87
2022-10-06T06:43:41.254Z,95.77
2022-10-06T06:44:41.232Z,95.87
2022-10-06T06:45:41.309Z,95.97
2022-10-06T06:46:41.229Z,95.93
2022-10-06T06:47:41.187Z,96.55
2022-10-06T06:48:41.174Z,96.75
2022-10-06T06:49:41.170Z,96.65
2022-10-06T06:50:41.144Z,96.55
2022-10-06T06:51:41.163Z,96.40
2022-10-06T06:52:41.118Z,96.30
2022-10-06T06:53:41.137Z,96.30
2022-10-06T06:54:41.126Z,96.09
2022-10-06T06:55:41.084Z,95.94
2022-10-06T06:56:41.097Z,96.45
2022-10-06T06:57:41.142Z,96.35
2022-10-06T06:58:41.045Z,96.04
2022-10-06T06:59:41.023Z,95.84
2022-10-06T07:00:41.011Z,95.79
2022-10-06T07:01:41.108Z,95.49
2022-10-06T07:02:41.008Z,95.18
2022-10-06T07:03:57.990Z,94.98
2022-10-06T07:04:40.976Z,94.62
2022-10-06T07:05:40.943Z,94.42
2022-10-06T07:06:40.942Z,94.62
2022-10-06T07:07:40.984Z,94.68
2022-10-06T07:08:40.929Z,96.22
2022-10-06T07:09:40.895Z,96.01
2022-10-06T07:10:40.875Z,95.56
2022-10-06T07:11:40.890Z,95.87
2022-10-06T07:12:40.857Z,95.41
2022-10-06T07:13:40.862Z,95.00
2022-10-06T07:14:40.849Z,94.45
2022-10-06T07:15:40.875Z,94.14
2022-10-06T07:16:40.822Z,94.04
2022-10-06T07:17:40.802Z,93.89
2022-10-06T07:18:40.782Z,93.48
2022-10-06T07:19:40.782Z,92.87
2022-10-06T07:20:40.859Z,92.93
2022-10-06T07:21:40.734Z,92.72
2022-10-06T07:22:40.749Z,92.72
2022-10-06T07:23:40.714Z,92.27
2022-10-06T07:24:40.699Z,92.17
2022-10-06T07:25:40.708Z,92.27
2022-10-06T07:26:40.675Z,92.07
2022-10-06T07:27:40.676Z,92.07
2022-10-06T07:28:40.701Z,92.02
2022-10-06T07:29:40.621Z,91.41
2022-10-06T07:30:41.032Z,91.11
2022-10-06T07:31:40.672Z,90.90
2022-10-06T07:32:40.612Z,90.70
2022-10-06T07:33:40.573Z,90.75
2022-10-06T07:34:40.559Z,90.75
2022-10-06T07:35:40.553Z,90.14
2022-10-06T07:36:40.574Z,89.53
2022-10-06T07:37:40.541Z,89.08
2022-10-06T07:38:40.535Z,88.78
2022-10-06T07:39:40.495Z,88.47
2022-10-06T07:40:46.198Z,88.12
2022-10-06T07:41:40.480Z,88.43
2022-10-06T07:42:40.454Z,87.82
2022-10-06T07:43:40.443Z,88.02
2022-10-06T07:44:40.439Z,87.47
2022-10-06T07:45:40.474Z,86.76
2022-10-06T07:46:40.400Z,87.26
2022-10-06T07:47:40.389Z,86.45
2022-10-06T07:48:40.373Z,86.61
2022-10-06T07:49:40.401Z,86.41
2022-10-06T07:50:40.344Z,86.00
2022-10-06T07:51:40.330Z,85.96
2022-10-06T07:52:40.350Z,85.25
2022-10-06T07:53:40.328Z,86.13
2022-10-06T07:54:40.320Z,85.11
2022-10-06T07:55:40.271Z,83.95
2022-10-06T07:56:40.263Z,84.97
2022-10-06T07:57:40.288Z,83.09
2022-10-06T07:58:40.240Z,83.87
2022-10-06T07:59:40.241Z,82.85
2022-10-06T08:00:40.235Z,80.07
2022-10-06T08:01:40.282Z,79.46
2022-10-06T08:02:40.260Z,78.95
2022-10-06T08:03:40.173Z,79.25
2022-10-06T08:04:40.309Z,78.64
2022-10-06T08:05:40.151Z,77.43
2022-10-06T08:06:40.134Z,78.81
2022-10-06T08:07:40.146Z,79.12
2022-10-06T08:08:40.099Z,79.08
2022-10-06T08:09:40.109Z,78.98
2022-10-06T08:10:40.111Z,78.67
2022-10-06T08:11:40.068Z,78.94
2022-10-06T08:12:40.165Z,79.45
2022-10-06T08:13:40.037Z,78.23
2022-10-06T08:14:40.025Z,77.72
2022-10-06T08:15:40.076Z,78.19
2022-10-06T08:16:40.015Z,76.78
2022-10-06T08:17:40.001Z,77.08
2022-10-06T08:18:47.456Z,77.14
2022-10-06T08:19:39.960Z,76.43
2022-10-06T08:20:39.950Z,75.62
2022-10-06T08:21:39.937Z,76.09
2022-10-06T08:22:39.921Z,75.38
2022-10-06T08:23:39.936Z,74.33
2022-10-06T08:25:04.124Z,74.44
2022-10-06T08:25:39.910Z,74.20
2022-10-06T08:26:39.885Z,73.69
2022-10-06T08:27:39.850Z,74.37
2022-10-06T08:28:39.945Z,74.16
2022-10-06T08:29:39.823Z,74.98
2022-10-06T08:30:39.854Z,74.84
2022-10-06T08:31:39.869Z,74.43
2022-10-06T08:32:39.796Z,74.84
2022-10-06T08:33:39.770Z,72.72
2022-10-06T08:34:39.758Z,73.12
2022-10-06T08:35:39.744Z,73.12
2022-10-06T08:36:44.998Z,71.60
2022-10-06T08:37:39.749Z,72.88
2022-10-06T08:38:39.700Z,72.28
2022-10-06T08:39:39.691Z,71.57
2022-10-06T08:40:39.671Z,71.03
2022-10-06T08:41:39.770Z,71.53
2022-10-06T08:42:39.668Z,70.62
2022-10-06T08:43:39.656Z,69.98
2022-10-06T08:44:39.621Z,69.58
2022-10-06T08:45:39.614Z,67.56
2022-10-06T08:46:39.628Z,68.27
2022-10-06T08:47:39.577Z,68.98
2022-10-06T08:48:39.618Z,70.46
2022-10-06T08:49:39.548Z,66.99
2022-10-06T08:50:39.548Z,68.07
2022-10-06T08:51:39.520Z,66.96
2022-10-06T08:52:39.536Z,66.33
2022-10-06T08:53:39.589Z,65.79
2022-10-06T08:54:39.483Z,66.19
2022-10-06T08:55:39.472Z,65.96
2022-10-06T08:56:39.497Z,66.56
2022-10-06T08:57:39.451Z,65.93
2022-10-06T08:58:39.439Z,65.12
2022-10-06T08:59:39.419Z,65.39
2022-10-06T09:00:39.408Z,65.30
2022-10-06T09:01:39.519Z,64.79
2022-10-06T09:02:39.488Z,64.19
2022-10-06T09:03:39.364Z,63.65
2022-10-06T09:04:39.513Z,63.85
2022-10-06T09:05:39.340Z,63.93
2022-10-06T09:06:39.339Z,62.72
2022-10-06T09:07:39.347Z,62.82
2022-10-06T09:08:39.294Z,61.18
2022-10-06T09:09:39.285Z,62.49
2022-10-06T09:10:39.304Z,63.49
2022-10-06T09:11:39.259Z,62.89
2022-10-06T09:12:39.249Z,63.70
2022-10-06T09:13:39.228Z,63.26
2022-10-06T09:14:39.256Z,62.86
2022-10-06T09:15:39.233Z,63.13
2022-10-06T09:16:39.193Z,60.22
2022-10-06T09:17:39.176Z,60.02
2022-10-06T09:18:56.434Z,62.30
2022-10-06T09:19:39.184Z,61.10
2022-10-06T09:20:39.160Z,59.46
2022-10-06T09:21:39.171Z,59.56
2022-10-06T09:22:39.213Z,60.33
2022-10-06T09:23:39.139Z,59.33
2022-10-06T09:24:42.401Z,59.03
2022-10-06T09:25:39.079Z,58.70
2022-10-06T09:26:39.975Z,59.20
2022-10-06T09:27:39.047Z,59.41
2022-10-06T09:28:39.128Z,58.00
2022-10-06T09:29:39.065Z,56.60
2022-10-06T09:30:39.008Z,56.40
2022-10-06T09:31:39.113Z,58.18
2022-10-06T09:32:38.976Z,57.07
2022-10-06T09:33:38.974Z,57.17
2022-10-06T09:34:38.988Z,56.95
2022-10-06T09:35:38.990Z,56.55
2022-10-06T09:36:38.985Z,57.62
2022-10-06T09:37:38.939Z,56.72
2022-10-06T09:38:38.931Z,55.92
2022-10-06T09:39:38.902Z,56.39
2022-10-06T09:40:38.961Z,56.79
2022-10-06T09:41:38.865Z,57.07
2022-10-06T09:42:38.877Z,54.86
2022-10-06T09:43:38.833Z,54.44
2022-10-06T09:44:38.855Z,54.64
2022-10-06T09:45:38.810Z,54.61
2022-10-06T09:46:38.795Z,54.59
2022-10-06T09:47:38.802Z,52.99
2022-10-06T09:48:38.782Z,52.79
2022-10-06T09:49:38.785Z,52.76
2022-10-06T09:50:38.822Z,53.06
2022-10-06T09:51:38.790Z,54.46
2022-10-06T09:52:38.713Z,55.04
2022-10-06T09:53:38.701Z,54.71
2022-10-06T09:54:38.701Z,53.71
2022-10-06T09:55:38.707Z,53.19
2022-10-06T09:56:38.670Z,52.69
2022-10-06T09:57:38.653Z,52.17
2022-10-06T09:58:38.632Z,49.78
2022-10-06T09:59:40.259Z,49.18
2022-10-06T10:00:38.761Z,50.98
2022-10-06T10:01:38.595Z,50.95
2022-10-06T10:02:38.673Z,48.96
2022-10-06T10:03:38.639Z,49.46
2022-10-06T10:04:38.564Z,51.05
2022-10-06T10:05:38.636Z,50.33
2022-10-06T10:06:38.546Z,50.23
2022-10-06T10:07:38.525Z,49.61
2022-10-06T10:08:38.536Z,49.61
2022-10-06T10:09:38.493Z,50.40
2022-10-06T10:10:38.476Z,48.32
2022-10-06T10:11:38.487Z,49.98
2022-10-06T10:12:38.639Z,50.08
2022-10-06T10:13:38.443Z,47.60
2022-10-06T10:14:38.443Z,46.70
2022-10-06T10:15:38.431Z,48.49
2022-10-06T10:16:38.428Z,47.60
2022-10-06T10:17:38.395Z,46.58
2022-10-06T10:18:38.384Z,45.59
2022-10-06T10:19:38.361Z,45.09
2022-10-06T10:20:38.378Z,46.38
2022-10-06T10:21:38.334Z,45.79
2022-10-06T10:22:38.318Z,45.09
2022-10-06T10:23:38.329Z,46.78
2022-10-06T10:24:38.332Z,45.68
2022-10-06T10:25:38.323Z,45.98
2022-10-06T10:26:38.293Z,46.06
2022-10-06T10:27:38.253Z,46.46
2022-10-06T10:28:38.335Z,45.76
2022-10-06T10:29:38.226Z,46.73
2022-10-06T10:30:38.225Z,45.15
2022-10-06T10:31:38.233Z,45.12
2022-10-06T10:32:38.203Z,46.12
2022-10-06T10:33:38.207Z,44.63
2022-10-06T10:34:38.171Z,42.82
2022-10-06T10:35:38.149Z,44.21
2022-10-06T10:36:38.143Z,44.49
2022-10-06T10:37:38.150Z,43.10
2022-10-06T10:38:38.116Z,44.19
2022-10-06T10:39:38.101Z,43.70
2022-10-06T10:40:38.107Z,42.21
2022-10-06T10:41:38.112Z,43.10
2022-10-06T10:42:38.064Z,43.40
2022-10-06T10:43:38.083Z,43.49
2022-10-06T10:44:38.075Z,44.19
2022-10-06T10:45:38.030Z,42.71
2022-10-06T10:46:38.094Z,43.48
2022-10-06T10:47:38.001Z,44.17
2022-10-06T10:48:38.005Z,43.77
2022-10-06T10:49:37.989Z,42.57
2022-10-06T10:50:37.959Z,42.86
2022-10-06T10:51:37.959Z,42.46
2022-10-06T10:52:37.936Z,43.35
2022-10-06T10:53:40.324Z,43.55
2022-10-06T10:54:37.914Z,42.66
2022-10-06T10:55:37.902Z,43.63
2022-10-06T10:56:37.891Z,43.04
2022-10-06T10:57:37.870Z,41.75
2022-10-06T10:58:37.906Z,42.66
2022-10-06T10:59:37.849Z,41.87
2022-10-06T11:00:37.944Z,42.46
2022-10-06T11:01:37.915Z,43.73
2022-10-06T11:02:37.808Z,42.05
2022-10-06T11:03:37.855Z,42.54
2022-10-06T11:04:37.789Z,42.25
2022-10-06T11:05:37.775Z,43.04
2022-10-06T11:06:37.767Z,42.35
2022-10-06T11:07:37.799Z,42.84
2022-10-06T11:08:37.785Z,43.43
2022-10-06T11:09:37.730Z,43.13
2022-10-06T11:10:37.707Z,41.85
2022-10-06T11:11:37.704Z,41.75
2022-10-06T11:12:37.721Z,42.43
2022-10-06T11:13:37.749Z,41.93
2022-10-06T11:14:37.676Z,42.72
2022-10-06T11:15:37.641Z,42.82
2022-10-06T11:16:37.693Z,43.31
2022-10-06T11:17:37.656Z,42.82
2022-10-06T11:18:37.644Z,44.01
2022-10-06T11:19:37.631Z,43.59
2022-10-06T11:20:37.579Z,42.38
2022-10-06T11:21:37.579Z,41.69
2022-10-06T11:22:37.564Z,40.80
2022-10-06T11:23:37.594Z,40.70
2022-10-06T11:24:37.588Z,40.41
2022-10-06T11:25:37.533Z,41.20
2022-10-06T11:26:37.577Z,41.39
2022-10-06T11:27:37.543Z,41.39
2022-10-06T11:28:37.549Z,41.69
2022-10-06T11:29:37.500Z,41.79
2022-10-06T11:30:37.473Z,42.08
2022-10-06T11:31:37.546Z,40.90
2022-10-06T11:32:37.464Z,40.21
2022-10-06T11:33:37.421Z,41.71
2022-10-06T11:34:37.423Z,42.40
2022-10-06T11:35:37.392Z,40.82
2022-10-06T11:36:37.437Z,41.00
2022-10-06T11:37:37.364Z,41.69
2022-10-06T11:38:37.353Z,41.99
2022-10-06T11:39:37.345Z,41.99
2022-10-06T11:40:37.366Z,42.58
2022-10-06T11:41:37.368Z,42.36
2022-10-06T11:42:37.359Z,42.07
2022-10-06T11:43:37.314Z,41.00
2022-10-06T11:44:37.275Z,41.38
2022-10-06T11:45:37.366Z,42.38
2022-10-06T11:46:40.089Z,41.00
2022-10-06T11:47:37.340Z,40.90
2022-10-06T11:48:37.223Z,42.08
2022-10-06T11:49:37.232Z,41.79
2022-10-06T11:50:37.221Z,41.87
2022-10-06T11:51:37.275Z,42.58
2022-10-06T11:52:37.189Z,42.78
2022-10-06T11:53:37.222Z,41.39
2022-10-06T11:54:37.203Z,41.57
2022-10-06T11:55:37.239Z,41.87
2022-10-06T11:56:37.150Z,41.28
2022-10-06T11:57:37.137Z,40.98
2022-10-06T11:58:42.245Z,41.00
2022-10-06T11:59:37.084Z,41.79
2022-10-06T12:00:37.061Z,41.91
2022-10-06T12:01:37.103Z,42.70
2022-10-06T12:02:37.186Z,43.39
2022-10-06T12:03:37.064Z,41.91
2022-10-06T12:04:37.012Z,42.30
2022-10-06T12:05:55.702Z,41.49
2022-10-06T12:06:36.996Z,41.41
2022-10-06T12:07:37.008Z,41.39
2022-10-06T12:08:36.970Z,42.70
2022-10-06T12:09:36.958Z,42.50
2022-10-06T12:10:36.976Z,42.60
2022-10-06T12:11:36.942Z,41.39
2022-10-06T12:12:36.929Z,40.72
2022-10-06T12:14:26.518Z,42.01
2022-10-06T12:17:36.868Z,42.90
2022-10-06T12:18:36.852Z,42.99
2022-10-06T12:19:36.842Z,42.99
2022-10-06T12:20:36.855Z,41.79
2022-10-06T12:21:36.848Z,41.49
2022-10-06T12:22:36.781Z,41.20
2022-10-06T12:23:36.830Z,42.30
2022-10-06T12:24:36.763Z,42.40
2022-10-06T12:25:36.759Z,43.79
2022-10-06T12:26:36.774Z,42.30
2022-10-06T12:27:36.752Z,42.72
2022-10-06T12:28:36.789Z,41.63
2022-10-06T12:29:36.702Z,41.73
2022-10-06T12:30:36.751Z,42.92
2022-10-06T12:31:36.675Z,43.71
2022-10-06T12:32:36.710Z,42.92
2022-10-06T12:33:36.652Z,43.71
2022-10-06T12:34:36.637Z,42.82
2022-10-06T12:35:36.636Z,42.13
2022-10-06T12:36:36.602Z,43.19
2022-10-06T12:37:36.593Z,41.41
2022-10-06T12:38:36.624Z,41.93
2022-10-06T12:39:36.568Z,41.53
2022-10-06T12:40:36.561Z,42.84
2022-10-06T12:41:36.586Z,41.95
2022-10-06T12:42:36.537Z,42.74
2022-10-06T12:43:36.552Z,42.86
2022-10-06T12:44:36.518Z,43.33
2022-10-06T12:45:36.507Z,43.73
2022-10-06T12:46:36.631Z,43.91
2022-10-06T12:47:36.488Z,43.63
2022-10-06T12:48:36.476Z,43.21
2022-10-06T12:49:36.444Z,43.31
2022-10-06T12:50:36.441Z,43.31
2022-10-06T12:51:36.479Z,44.20
2022-10-06T12:52:36.413Z,42.70
2022-10-06T12:53:36.398Z,43.59
2022-10-06T12:54:36.397Z,42.21
2022-10-06T12:55:36.399Z,42.40